createdAt,value
2018-08-12T00:02:10.219Z,18.05
2018-08-12T00:04:38.706Z,17.99
2018-08-12T00:07:07.380Z,17.88
2018-08-12T00:09:35.826Z,17.89
2018-08-12T00:12:05.105Z,17.93
2018-08-12T00:14:33.582Z,17.79
2018-08-12T00:17:01.979Z,17.66
2018-08-12T00:19:30.530Z,17.70
2018-08-12T00:21:59.013Z,17.52
2018-08-12T00:24:28.358Z,17.62
2018-08-12T00:26:56.761Z,17.68
2018-08-12T00:29:25.219Z,17.71
2018-08-12T00:31:53.659Z,17.57
2018-08-12T00:34:22.184Z,17.48
2018-08-12T00:36:50.606Z,17.53
2018-08-12T00:39:19.086Z,17.43
2018-08-12T00:41:47.576Z,17.34
2018-08-12T00:44:16.052Z,17.27
2018-08-12T00:46:44.610Z,17.19
2018-08-12T00:49:13.048Z,17.30
2018-08-12T00:51:41.795Z,17.27
2018-08-12T00:54:10.247Z,17.35
2018-08-12T00:56:38.696Z,17.22
2018-08-12T00:59:07.392Z,17.23
2018-08-12T01:01:35.840Z,17.23
2018-08-12T01:04:04.299Z,17.14
2018-08-12T01:06:33.091Z,17.13
2018-08-12T01:09:01.550Z,17.09
2018-08-12T01:11:30.026Z,16.97
2018-08-12T01:13:58.534Z,16.96
2018-08-12T01:16:26.991Z,16.89
2018-08-12T01:18:55.516Z,16.72
2018-08-12T01:21:24.009Z,16.74
2018-08-12T01:23:52.513Z,16.80
2018-08-12T01:26:21.455Z,16.78
2018-08-12T01:28:49.912Z,16.84
2018-08-12T01:31:18.352Z,16.84
2018-08-12T01:33:46.828Z,16.92
2018-08-12T01:36:15.267Z,16.78
2018-08-12T01:38:43.997Z,16.81
2018-08-12T01:41:12.465Z,16.83
2018-08-12T01:43:40.981Z,16.87
2018-08-12T01:46:09.461Z,16.87
2018-08-12T01:48:37.896Z,16.88
2018-08-12T01:51:06.407Z,16.79
2018-08-12T01:53:34.888Z,16.83
2018-08-12T01:56:03.402Z,16.62
2018-08-12T01:58:31.937Z,16.62
2018-08-12T02:01:00.424Z,16.49
2018-08-12T02:03:28.908Z,16.64
2018-08-12T02:05:57.323Z,16.66
2018-08-12T02:08:25.779Z,16.65
2018-08-12T02:10:54.225Z,16.56
2018-08-12T02:13:22.669Z,16.59
2018-08-12T02:15:51.100Z,16.53
2018-08-12T02:18:19.588Z,16.52
2018-08-12T02:20:48.091Z,16.57
2018-08-12T02:23:16.572Z,16.52
2018-08-12T02:25:45.036Z,16.56
2018-08-12T02:28:13.558Z,16.54
2018-08-12T02:30:41.970Z,16.47
2018-08-12T02:33:10.449Z,16.51
2018-08-12T02:35:38.899Z,16.51
2018-08-12T02:38:07.418Z,16.46
2018-08-12T02:40:35.882Z,16.39
2018-08-12T02:43:04.377Z,16.23
2018-08-12T02:45:32.866Z,16.28
2018-08-12T02:48:01.317Z,16.15
2018-08-12T02:50:29.946Z,16.01
2018-08-12T02:52:58.624Z,15.84
2018-08-12T02:55:27.140Z,16.09
2018-08-12T02:57:55.552Z,16.15
2018-08-12T03:00:24.030Z,16.10
2018-08-12T03:02:52.501Z,16.11
2018-08-12T03:05:21.560Z,16.02
2018-08-12T03:07:50.037Z,15.96
2018-08-12T03:10:18.533Z,15.81
2018-08-12T03:12:47.000Z,15.71
2018-08-12T03:15:15.625Z,15.82
2018-08-12T03:17:44.117Z,15.79
2018-08-12T03:20:12.775Z,15.73
2018-08-12T03:22:41.253Z,15.63
2018-08-12T03:25:10.901Z,15.57
2018-08-12T03:27:39.884Z,15.63
2018-08-12T03:30:09.852Z,15.65
2018-08-12T03:32:38.304Z,15.65
2018-08-12T03:35:06.779Z,15.74
2018-08-12T03:37:35.239Z,15.71
2018-08-12T03:40:03.731Z,15.60
2018-08-12T03:42:32.195Z,15.61
2018-08-12T03:45:00.695Z,15.62
2018-08-12T03:47:29.140Z,15.68
2018-08-12T03:49:57.835Z,15.74
2018-08-12T03:52:26.620Z,15.70
2018-08-12T03:54:55.472Z,15.66
2018-08-12T03:57:24.297Z,15.55
2018-08-12T03:59:52.708Z,15.61
2018-08-12T04:02:21.169Z,15.59
2018-08-12T04:04:49.653Z,15.51
2018-08-12T04:07:18.091Z,15.59
2018-08-12T04:09:46.915Z,15.67
2018-08-12T04:12:15.375Z,15.67
2018-08-12T04:14:43.798Z,15.66
2018-08-12T04:17:12.356Z,15.71
2018-08-12T04:19:40.788Z,15.74
2018-08-12T04:22:09.250Z,15.62
2018-08-12T04:24:37.694Z,15.71
2018-08-12T04:27:06.638Z,15.65
2018-08-12T04:29:35.115Z,15.79
2018-08-12T04:32:03.587Z,15.86
2018-08-12T04:34:32.025Z,15.85
2018-08-12T04:37:00.546Z,15.91
2018-08-12T04:39:29.005Z,15.96
2018-08-12T04:41:57.463Z,16.05
2018-08-12T04:44:25.934Z,16.23
2018-08-12T04:46:54.486Z,16.19
2018-08-12T04:49:22.976Z,16.21
2018-08-12T04:51:51.523Z,16.26
2018-08-12T04:54:19.986Z,16.47
2018-08-12T04:56:48.590Z,16.52
2018-08-12T04:59:17.229Z,16.52
2018-08-12T05:01:45.670Z,16.71
2018-08-12T05:04:14.124Z,16.80
2018-08-12T05:06:42.582Z,16.76
2018-08-12T05:09:12.184Z,16.91
2018-08-12T05:11:41.156Z,16.97
2018-08-12T05:14:09.600Z,17.06
2018-08-12T05:16:38.089Z,17.09
2018-08-12T05:19:06.638Z,17.20
2018-08-12T05:21:35.187Z,17.19
2018-08-12T05:24:03.966Z,17.38
2018-08-12T05:26:32.412Z,17.38
2018-08-12T05:29:00.844Z,17.46
2018-08-12T05:31:29.862Z,17.62
2018-08-12T05:33:58.567Z,17.62
2018-08-12T05:36:27.047Z,17.70
2018-08-12T05:38:55.551Z,17.93
2018-08-12T05:41:24.378Z,20.36
2018-08-12T05:43:52.860Z,19.11
2018-08-12T05:46:21.388Z,20.81
2018-08-12T05:48:50.212Z,19.26
2018-08-12T05:51:18.766Z,20.64
2018-08-12T05:53:47.251Z,19.56
2018-08-12T05:56:15.772Z,20.82
2018-08-12T05:58:44.260Z,20.22
2018-08-12T06:01:12.699Z,21.11
2018-08-12T06:03:41.128Z,20.51
2018-08-12T06:06:09.594Z,20.86
2018-08-12T06:08:38.421Z,20.38
2018-08-12T06:11:07.105Z,20.40
2018-08-12T06:13:35.570Z,19.89
2018-08-12T06:16:04.763Z,19.90
2018-08-12T06:18:33.207Z,21.49
2018-08-12T06:21:01.687Z,21.29
2018-08-12T06:23:30.167Z,21.16
2018-08-12T06:25:58.653Z,20.88
2018-08-12T06:28:27.216Z,20.27
2018-08-12T06:30:55.683Z,21.23
2018-08-12T06:33:24.185Z,21.88
2018-08-12T06:35:52.666Z,21.91
2018-08-12T06:38:21.240Z,21.50
2018-08-12T06:40:49.727Z,21.86
2018-08-12T06:43:18.914Z,21.13
2018-08-12T06:45:47.355Z,21.75
2018-08-12T06:48:15.993Z,22.14
2018-08-12T06:50:44.456Z,21.67
2018-08-12T06:53:12.937Z,21.42
2018-08-12T06:55:41.501Z,21.77
2018-08-12T06:58:09.958Z,22.15
2018-08-12T07:00:38.448Z,22.19
2018-08-12T07:03:07.706Z,22.58
2018-08-12T07:05:36.186Z,22.52
2018-08-12T07:08:04.712Z,22.24
2018-08-12T07:10:33.359Z,22.70
2018-08-12T07:13:01.863Z,22.87
2018-08-12T07:15:30.300Z,22.59
2018-08-12T07:17:58.719Z,23.04
2018-08-12T07:20:27.161Z,23.17
2018-08-12T07:22:55.886Z,23.19
2018-08-12T07:25:24.574Z,23.33
2018-08-12T07:27:53.003Z,23.48
2018-08-12T07:30:21.545Z,23.25
2018-08-12T07:32:50.135Z,23.38
2018-08-12T07:35:18.591Z,23.73
2018-08-12T07:37:47.088Z,23.72
2018-08-12T07:40:17.819Z,23.82
2018-08-12T07:42:47.168Z,24.03
2018-08-12T07:45:15.682Z,23.89
2018-08-12T07:47:44.714Z,23.95
2018-08-12T07:50:13.519Z,24.18
2018-08-12T07:52:43.694Z,24.18
2018-08-12T07:55:13.920Z,24.21
2018-08-12T07:57:43.464Z,24.36
2018-08-12T08:00:17.572Z,24.49
2018-08-12T08:02:46.308Z,24.30
2018-08-12T08:05:14.876Z,24.49
2018-08-12T08:07:43.555Z,24.48
2018-08-12T08:10:14.346Z,24.57
2018-08-12T08:12:42.843Z,24.47
2018-08-12T08:15:17.071Z,24.31
2018-08-12T08:17:46.132Z,24.45
2018-08-12T08:20:15.288Z,24.55
2018-08-12T08:22:44.302Z,24.63
2018-08-12T08:25:13.323Z,25.12
2018-08-12T08:27:41.972Z,25.02
2018-08-12T08:30:13.557Z,25.19
2018-08-12T08:32:42.556Z,25.29
2018-08-12T08:35:12.364Z,25.20
2018-08-12T08:37:41.352Z,25.50
2018-08-12T08:40:14.322Z,25.69
2018-08-12T08:43:45.324Z,25.95
2018-08-12T08:46:13.793Z,25.78
2018-08-12T08:48:42.239Z,26.18
2018-08-12T08:51:10.654Z,26.35
2018-08-12T08:53:39.165Z,26.19
2018-08-12T08:56:07.840Z,26.35
2018-08-12T08:58:36.307Z,26.43
2018-08-12T09:01:04.804Z,26.81
2018-08-12T09:03:33.244Z,26.90
2018-08-12T09:06:01.754Z,26.77
2018-08-12T09:08:30.551Z,27.27
2018-08-12T09:11:29.116Z,27.16
2018-08-12T09:13:57.669Z,26.80
2018-08-12T09:16:26.127Z,26.87
2018-08-12T09:18:54.588Z,27.17
2018-08-12T09:21:23.028Z,27.49
2018-08-12T09:23:51.515Z,27.60
2018-08-12T09:26:19.931Z,27.51
2018-08-12T09:28:48.345Z,27.26
2018-08-12T09:31:16.814Z,27.29
2018-08-12T09:33:45.604Z,27.55
2018-08-12T09:36:14.354Z,27.98
2018-08-12T09:38:42.845Z,28.16
2018-08-12T09:41:11.316Z,28.03
2018-08-12T09:43:39.785Z,28.25
2018-08-12T09:46:08.670Z,27.49
2018-08-12T09:48:37.832Z,28.17
2018-08-12T09:51:06.275Z,28.69
2018-08-12T09:53:34.778Z,28.82
2018-08-12T09:56:03.185Z,28.75
2018-08-12T09:58:31.742Z,28.59
2018-08-12T10:01:00.185Z,27.70
2018-08-12T10:03:28.673Z,28.37
2018-08-12T10:05:57.186Z,28.79
2018-08-12T10:08:25.625Z,28.96
2018-08-12T10:10:54.114Z,28.80
2018-08-12T10:13:22.611Z,28.47
2018-08-12T10:15:51.212Z,28.47
2018-08-12T10:18:19.664Z,28.38
2018-08-12T10:20:48.187Z,28.97
2018-08-12T10:23:16.655Z,29.43
2018-08-12T10:25:45.364Z,29.96
2018-08-12T10:28:13.915Z,29.57
2018-08-12T10:30:43.053Z,29.90
2018-08-12T10:33:11.544Z,30.18
2018-08-12T10:35:40.116Z,30.03
2018-08-12T10:38:08.567Z,30.52
2018-08-12T10:40:36.987Z,30.22
2018-08-12T10:43:05.518Z,30.25
2018-08-12T10:45:33.953Z,30.89
2018-08-12T10:48:02.433Z,30.18
2018-08-12T10:50:31.254Z,30.45
2018-08-12T10:52:59.957Z,30.86
2018-08-12T10:55:28.602Z,31.20
2018-08-12T10:57:57.106Z,31.02
2018-08-12T11:00:27.940Z,30.74
2018-08-12T11:02:56.524Z,30.77
2018-08-12T11:05:25.015Z,31.28
2018-08-12T11:07:55.977Z,30.89
2018-08-12T11:10:24.969Z,30.45
2018-08-12T11:12:53.439Z,31.36
2018-08-12T11:15:22.193Z,30.94
2018-08-12T11:17:50.675Z,31.15
2018-08-12T11:20:19.499Z,31.88
2018-08-12T11:22:48.870Z,31.37
2018-08-12T11:25:17.388Z,31.19
2018-08-12T11:27:45.962Z,31.64
2018-08-12T11:30:16.321Z,30.69
2018-08-12T11:32:44.884Z,31.86
2018-08-12T11:35:15.125Z,31.45
2018-08-12T11:37:44.331Z,31.59
2018-08-12T11:40:14.077Z,33.76
2018-08-12T11:42:42.894Z,33.82
2018-08-12T11:45:14.303Z,32.64
2018-08-12T11:47:43.603Z,34.45
2018-08-12T11:50:12.780Z,34.78
2018-08-12T11:52:42.348Z,35.85
2018-08-12T11:55:12.515Z,33.09
2018-08-12T11:57:41.516Z,35.03
2018-08-12T12:00:13.275Z,35.33
2018-08-12T12:02:41.796Z,34.36
2018-08-12T12:05:12.473Z,33.65
2018-08-12T12:07:41.425Z,32.42
2018-08-12T12:10:12.814Z,31.87
2018-08-12T12:12:42.894Z,33.00
2018-08-12T12:15:12.592Z,33.71
2018-08-12T12:17:41.404Z,35.33
2018-08-12T12:20:11.279Z,36.64
2018-08-12T12:22:41.501Z,37.96
2018-08-12T12:25:11.824Z,36.80
2018-08-12T12:27:40.546Z,37.25
2018-08-12T12:30:11.424Z,34.78
2018-08-12T12:32:39.918Z,36.32
2018-08-12T12:35:08.547Z,35.54
2018-08-12T12:37:37.369Z,36.78
2018-08-12T12:40:07.596Z,37.65
2018-08-12T12:42:36.582Z,34.34
2018-08-12T12:45:06.894Z,34.77
2018-08-12T12:47:35.682Z,34.25
2018-08-12T12:50:05.800Z,34.20
2018-08-12T12:52:34.302Z,35.16
2018-08-12T12:55:03.099Z,35.86
2018-08-12T12:57:31.848Z,35.22
2018-08-12T13:00:00.768Z,34.85
2018-08-12T13:02:29.231Z,34.69
2018-08-12T13:04:57.747Z,35.83
2018-08-12T13:07:26.199Z,37.40
2018-08-12T13:09:54.766Z,37.91
2018-08-12T13:12:23.662Z,38.78
2018-08-12T13:14:52.083Z,36.54
2018-08-12T13:17:20.647Z,35.21
2018-08-12T13:19:49.103Z,34.11
2018-08-12T13:22:17.567Z,35.67
2018-08-12T13:24:46.448Z,38.52
2018-08-12T13:27:14.860Z,36.39
2018-08-12T13:29:43.266Z,35.87
2018-08-12T13:32:12.068Z,37.50
2018-08-12T13:34:40.555Z,37.85
2018-08-12T13:37:09.015Z,36.91
2018-08-12T13:39:37.446Z,37.08
2018-08-12T13:42:05.915Z,37.29
2018-08-12T13:44:34.380Z,36.05
2018-08-12T13:47:02.842Z,36.38
2018-08-12T13:49:31.272Z,35.91
2018-08-12T13:51:59.992Z,36.30
2018-08-12T13:54:28.715Z,37.34
2018-08-12T13:56:57.412Z,37.92
2018-08-12T13:59:25.816Z,37.05
2018-08-12T14:01:54.353Z,37.84
2018-08-12T14:04:22.807Z,37.46
2018-08-12T14:06:51.482Z,37.43
2018-08-12T14:09:19.992Z,37.63
2018-08-12T14:11:48.416Z,40.03
2018-08-12T14:14:16.951Z,38.40
2018-08-12T14:16:45.398Z,38.13
2018-08-12T14:19:14.039Z,39.15
2018-08-12T14:21:42.532Z,38.71
2018-08-12T14:24:11.447Z,38.23
2018-08-12T14:26:39.955Z,37.55
2018-08-12T14:29:08.375Z,37.65
2018-08-12T14:31:36.871Z,38.52
2018-08-12T14:34:05.545Z,38.27
2018-08-12T14:36:34.052Z,39.96
2018-08-12T14:39:02.580Z,38.30
2018-08-12T14:41:31.049Z,37.52
2018-08-12T14:43:59.491Z,38.13
2018-08-12T14:46:27.961Z,38.49
2018-08-12T14:48:56.512Z,39.07
2018-08-12T14:51:25.184Z,37.08
2018-08-12T14:53:53.628Z,38.07
2018-08-12T14:56:22.282Z,37.98
2018-08-12T14:58:50.755Z,38.45
2018-08-12T15:01:19.211Z,38.42
2018-08-12T15:03:47.706Z,36.84
2018-08-12T15:06:16.187Z,37.10
2018-08-12T15:08:44.691Z,37.51
2018-08-12T15:11:13.161Z,38.52
2018-08-12T15:13:41.644Z,36.78
2018-08-12T15:16:10.132Z,36.42
2018-08-12T15:18:38.605Z,38.46
2018-08-12T15:21:07.372Z,36.91
2018-08-12T15:23:35.899Z,36.68
2018-08-12T15:26:04.374Z,36.81
2018-08-12T15:28:32.933Z,38.60
2018-08-12T15:31:01.408Z,38.25
2018-08-12T15:33:30.159Z,36.64
2018-08-12T15:35:58.779Z,36.93
2018-08-12T15:38:27.232Z,36.76
2018-08-12T15:40:55.743Z,37.25
2018-08-12T15:43:24.237Z,38.20
2018-08-12T15:45:52.707Z,37.15
2018-08-12T15:48:21.375Z,36.20
2018-08-12T15:50:49.814Z,35.61
2018-08-12T15:53:18.389Z,37.84
2018-08-12T15:55:47.103Z,38.74
2018-08-12T15:58:15.561Z,39.02
2018-08-12T16:00:44.048Z,39.93
2018-08-12T16:03:12.517Z,37.73
2018-08-12T16:05:41.047Z,38.17
2018-08-12T16:08:09.551Z,39.21
2018-08-12T16:10:37.993Z,37.86
2018-08-12T16:13:06.619Z,38.85
2018-08-12T16:15:35.379Z,37.17
2018-08-12T16:18:04.138Z,37.29
2018-08-12T16:20:32.714Z,39.17
2018-08-12T16:23:01.248Z,38.92
2018-08-12T16:25:29.940Z,39.72
2018-08-12T16:27:58.901Z,40.11
2018-08-12T16:30:27.424Z,39.61
2018-08-12T16:32:56.403Z,39.40
2018-08-12T16:35:24.905Z,38.35
2018-08-12T16:37:54.087Z,37.68
2018-08-12T16:40:22.579Z,37.04
2018-08-12T16:42:51.736Z,39.31
2018-08-12T16:45:21.063Z,38.62
2018-08-12T16:47:49.850Z,39.78
2018-08-12T16:50:18.624Z,38.47
2018-08-12T16:52:47.077Z,38.11
2018-08-12T16:55:17.261Z,38.81
2018-08-12T16:57:46.751Z,40.45
2018-08-12T17:00:19.304Z,40.55
2018-08-12T17:02:48.144Z,40.56
2018-08-12T17:05:18.037Z,41.19
2018-08-12T17:07:46.839Z,41.16
2018-08-12T17:10:16.677Z,40.11
2018-08-12T17:12:45.483Z,39.06
2018-08-12T17:15:16.219Z,38.74
2018-08-12T17:17:44.731Z,38.97
2018-08-12T17:20:15.171Z,39.10
2018-08-12T17:22:44.666Z,39.02
2018-08-12T17:25:13.143Z,38.99
2018-08-12T17:27:41.634Z,38.01
2018-08-12T17:30:11.492Z,38.59
2018-08-12T17:32:40.001Z,38.26
2018-08-12T17:35:09.477Z,37.98
2018-08-12T17:37:38.555Z,37.63
2018-08-12T17:40:09.064Z,37.48
2018-08-12T17:42:37.546Z,37.12
2018-08-12T17:45:07.077Z,36.76
2018-08-12T17:47:35.761Z,36.02
2018-08-12T17:50:05.176Z,34.79
2018-08-12T17:52:33.659Z,34.58
2018-08-12T17:55:02.216Z,33.75
2018-08-12T17:57:31.218Z,33.21
2018-08-12T17:59:59.928Z,32.64
2018-08-12T18:02:28.365Z,32.54
2018-08-12T18:04:57.004Z,32.71
2018-08-12T18:07:25.482Z,32.23
2018-08-12T18:09:53.910Z,32.05
2018-08-12T18:12:22.378Z,31.27
2018-08-12T18:14:51.098Z,31.02
2018-08-12T18:17:19.773Z,30.96
2018-08-12T18:19:48.248Z,30.63
2018-08-12T18:22:16.759Z,30.19
2018-08-12T18:24:45.311Z,29.95
2018-08-12T18:27:14.347Z,29.68
2018-08-12T18:29:42.816Z,29.70
2018-08-12T18:32:11.288Z,29.30
2018-08-12T18:34:39.773Z,29.17
2018-08-12T18:37:08.216Z,29.04
2018-08-12T18:39:36.710Z,28.89
2018-08-12T18:42:05.148Z,28.70
2018-08-12T18:44:33.928Z,28.52
2018-08-12T18:47:02.455Z,28.26
2018-08-12T18:49:45.359Z,28.25
2018-08-12T18:52:14.350Z,28.22
2018-08-12T18:54:42.906Z,28.12
2018-08-12T18:57:11.344Z,28.12
2018-08-12T18:59:40.083Z,28.03
2018-08-12T19:02:08.582Z,27.91
2018-08-12T19:04:37.115Z,27.87
2018-08-12T19:07:05.969Z,27.76
2018-08-12T19:09:34.407Z,27.59
2018-08-12T19:12:03.556Z,27.49
2018-08-12T19:14:32.136Z,27.21
2018-08-12T19:17:00.720Z,27.19
2018-08-12T19:19:29.467Z,27.05
2018-08-12T19:21:58.206Z,26.93
2018-08-12T19:24:26.672Z,26.95
2018-08-12T19:26:55.306Z,26.40
2018-08-12T19:29:23.766Z,26.43
2018-08-12T19:31:52.211Z,26.32
2018-08-12T19:34:20.653Z,26.22
2018-08-12T19:36:49.292Z,26.17
2018-08-12T19:39:18.207Z,26.20
2018-08-12T19:41:46.666Z,26.17
2018-08-12T19:44:15.128Z,26.16
2018-08-12T19:46:43.586Z,26.14
2018-08-12T19:49:12.020Z,26.08
2018-08-12T19:51:40.439Z,25.97
2018-08-12T19:54:09.105Z,25.93
2018-08-12T19:56:37.583Z,25.73
2018-08-12T19:59:06.013Z,25.68
2018-08-12T20:01:34.479Z,25.51
2018-08-12T20:04:02.944Z,25.60
2018-08-12T20:06:31.438Z,25.52
2018-08-12T20:08:59.914Z,25.42
2018-08-12T20:11:28.392Z,25.60
2018-08-12T20:13:57.078Z,25.59
2018-08-12T20:16:25.525Z,25.51
2018-08-12T20:18:54.979Z,25.42
2018-08-12T20:21:23.437Z,25.35
2018-08-12T20:23:51.890Z,25.38
2018-08-12T20:26:20.399Z,25.33
2018-08-12T20:28:48.904Z,25.42
2018-08-12T20:31:17.483Z,25.22
2018-08-12T20:33:45.900Z,25.11
2018-08-12T20:36:14.955Z,25.08
2018-08-12T20:38:43.443Z,25.10
2018-08-12T20:41:11.857Z,25.01
2018-08-12T20:43:40.407Z,25.02
2018-08-12T20:46:09.022Z,25.07
2018-08-12T20:48:37.563Z,24.87
2018-08-12T20:51:06.247Z,24.38
2018-08-12T20:53:34.814Z,24.61
2018-08-12T20:56:03.383Z,24.58
2018-08-12T20:58:31.816Z,24.48
2018-08-12T21:01:00.258Z,24.48
2018-08-12T21:03:28.747Z,24.50
2018-08-12T21:05:57.183Z,24.55
2018-08-12T21:08:25.667Z,24.47
2018-08-12T21:10:54.099Z,24.36
2018-08-12T21:13:22.567Z,24.10
2018-08-12T21:15:51.283Z,23.96
2018-08-12T21:18:19.772Z,23.90
2018-08-12T21:20:48.214Z,23.88
2018-08-12T21:23:16.900Z,23.82
2018-08-12T21:25:45.311Z,23.87
2018-08-12T21:28:13.828Z,23.84
2018-08-12T21:30:42.264Z,23.25
2018-08-12T21:33:10.740Z,23.12
2018-08-12T21:35:39.188Z,23.38
2018-08-12T21:38:07.642Z,23.57
2018-08-12T21:40:36.095Z,23.58
2018-08-12T21:43:04.563Z,23.53
2018-08-12T21:45:33.023Z,23.67
2018-08-12T21:48:01.456Z,23.73
2018-08-12T21:50:29.950Z,23.47
2018-08-12T21:52:58.395Z,23.57
2018-08-12T21:55:26.881Z,23.59
2018-08-12T21:57:55.379Z,23.53
2018-08-12T22:00:23.978Z,23.45
2018-08-12T22:02:52.444Z,23.37
2018-08-12T22:05:20.895Z,23.21
2018-08-12T22:07:49.327Z,23.23
2018-08-12T22:10:17.828Z,23.25
2018-08-12T22:12:46.390Z,23.31
2018-08-12T22:15:14.912Z,23.31
2018-08-12T22:17:43.416Z,23.16
2018-08-12T22:20:11.860Z,23.35
2018-08-12T22:22:40.330Z,23.27
2018-08-12T22:25:09.683Z,23.00
2018-08-12T22:27:38.111Z,22.89
2018-08-12T22:30:09.566Z,22.89
2018-08-12T22:32:38.007Z,22.76
2018-08-12T22:35:06.567Z,22.85
2018-08-12T22:37:35.038Z,22.60
2018-08-12T22:40:04.151Z,22.68
2018-08-12T22:42:32.609Z,22.72
2018-08-12T22:45:01.035Z,22.75
2018-08-12T22:47:29.529Z,22.75
2018-08-12T22:49:58.075Z,22.69
2018-08-12T22:52:26.508Z,22.69
2018-08-12T22:54:55.009Z,22.58
2018-08-12T22:57:23.463Z,22.56
2018-08-12T22:59:51.943Z,22.57
2018-08-12T23:02:20.473Z,22.47
2018-08-12T23:04:49.175Z,22.43
2018-08-12T23:07:17.663Z,22.43
2018-08-12T23:09:46.118Z,22.52
2018-08-12T23:12:15.388Z,22.48
2018-08-12T23:14:43.821Z,22.46
2018-08-12T23:17:12.249Z,22.44
2018-08-12T23:19:40.663Z,22.50
2018-08-12T23:22:09.113Z,22.48
2018-08-12T23:24:37.601Z,22.48
2018-08-12T23:27:06.024Z,22.32
2018-08-12T23:29:34.455Z,22.37
2018-08-12T23:32:02.879Z,22.48
2018-08-12T23:34:31.314Z,22.46
2018-08-12T23:36:59.884Z,22.36
2018-08-12T23:39:28.468Z,22.20
2018-08-12T23:41:57.329Z,22.20
2018-08-12T23:44:25.770Z,22.18
2018-08-12T23:46:54.272Z,22.33
2018-08-12T23:49:22.813Z,22.47
2018-08-12T23:51:51.269Z,22.21
2018-08-12T23:54:20.364Z,22.19
2018-08-12T23:56:49.055Z,22.08
2018-08-12T23:59:17.512Z,22.07
